Time;durP1;ratioP1;P1;durP2;ratioP2;P2;SDS_P1;SDS_P2;PMS_P1;PMS_P2;Temp;Humidity;BMP_temperature;BMP_pressure;BME280_temperature;BME280_humidity;BME280_pressure;Samples;Min_cycle;Max_cycle;Signal;HPM_P1;HPM_P2
2022/04/04 00:02:20;;;;;;;11.07;5.57;;;;;;;;;;4973116;28;20118;-68
2022/04/04 00:04:46;;;;;;;12.13;5.40;;;;;;;;;;4972689;28;20546;-67
2022/04/04 00:07:11;;;;;;;10.77;5.88;;;;;;;;;;4973375;28;20460;-68
2022/04/04 00:09:37;;;;;;;9.02;5.47;;;;;;;;;;4973227;28;20031;-67
2022/04/04 00:12:02;;;;;;;10.18;5.75;;;;;;;;;;4972625;28;20031;-67
2022/04/04 00:14:28;;;;;;;8.60;5.53;;;;;;;;;;4973156;28;20114;-67
2022/04/04 00:16:53;;;;;;;12.07;6.03;;;;;;;;;;4972379;28;20027;-67
2022/04/04 00:19:18;;;;;;;12.27;6.03;;;;;;;;;;4973266;28;20461;-68
2022/04/04 00:21:44;;;;;;;11.60;6.25;;;;;;;;;;4972757;28;20027;-67
2022/04/04 00:24:10;;;;;;;10.27;5.75;;;;;;;;;;4973150;28;20113;-68
2022/04/04 00:26:35;;;;;;;10.63;6.43;;;;;;;;;;4973198;28;20122;-68
2022/04/04 00:29:01;;;;;;;11.25;6.40;;;;;;;;;;4972609;28;20035;-67
2022/04/04 00:31:26;;;;;;;10.18;5.90;;;;;;;;;;4972203;28;20030;-67
2022/04/04 00:33:52;;;;;;;10.65;6.13;;;;;;;;;;4972494;28;20103;-68
2022/04/04 00:36:17;;;;;;;11.90;6.32;;;;;;;;;;4971944;28;20045;-66
2022/04/04 00:38:43;;;;;;;14.73;6.57;;;;;;;;;;4972246;28;20114;-66
2022/04/04 00:41:10;;;;;;;10.80;6.72;;;;;;;;;;4971864;28;20448;-66
2022/04/04 00:43:35;;;;;;;11.93;6.88;;;;;;;;;;4972980;28;20030;-66
2022/04/04 00:46:01;;;;;;;13.00;7.63;;;;;;;;;;4972358;28;20122;-66
2022/04/04 00:48:27;;;;;;;12.93;7.50;;;;;;;;;;4972962;28;20121;-66
2022/04/04 00:50:52;;;;;;;14.25;7.72;;;;;;;;;;4972538;28;20428;-66
2022/04/04 00:53:18;;;;;;;14.45;7.55;;;;;;;;;;4972611;28;20063;-66
2022/04/04 00:55:44;;;;;;;12.23;7.40;;;;;;;;;;4972361;28;20042;-66
2022/04/04 00:58:09;;;;;;;14.10;7.47;;;;;;;;;;4973045;28;20500;-66
2022/04/04 01:00:35;;;;;;;13.43;7.63;;;;;;;;;;4973219;28;20093;-66
2022/04/04 01:03:01;;;;;;;14.68;7.57;;;;;;;;;;4973273;28;20037;-66
2022/04/04 01:05:27;;;;;;;12.90;7.80;;;;;;;;;;4976503;28;20496;-66
2022/04/04 01:07:52;;;;;;;26.92;8.77;;;;;;;;;;4975648;28;20030;-66
2022/04/04 01:10:18;;;;;;;14.15;8.38;;;;;;;;;;4976486;28;20034;-66
2022/04/04 01:12:54;;;;;;;14.75;8.00;;;;;;;;;;4975575;28;20035;-66
2022/04/04 01:15:22;;;;;;;15.15;7.70;;;;;;;;;;4976363;28;20499;-66
2022/04/04 01:17:48;;;;;;;15.35;8.40;;;;;;;;;;4975759;28;20048;-67
2022/04/04 01:20:14;;;;;;;13.93;8.52;;;;;;;;;;4976521;28;20381;-66
2022/04/04 01:22:41;;;;;;;14.10;8.40;;;;;;;;;;4975927;28;20114;-66
2022/04/04 01:25:08;;;;;;;15.43;8.70;;;;;;;;;;4958194;28;20027;-66
2022/04/04 01:27:34;;;;;;;15.90;8.50;;;;;;;;;;4975819;28;20151;-66
2022/04/04 01:30:00;;;;;;;13.98;8.55;;;;;;;;;;4975299;28;20056;-67
2022/04/04 01:32:26;;;;;;;17.90;8.82;;;;;;;;;;4975943;28;20034;-66
2022/04/04 01:34:52;;;;;;;16.45;8.93;;;;;;;;;;4975263;28;20027;-66
2022/04/04 01:37:17;;;;;;;16.55;8.93;;;;;;;;;;4976233;28;20027;-67
2022/04/04 01:39:42;;;;;;;17.70;8.80;;;;;;;;;;4975906;28;20089;-66
2022/04/04 01:42:08;;;;;;;13.45;8.27;;;;;;;;;;4975167;28;20041;-66
2022/04/04 01:44:33;;;;;;;16.52;9.02;;;;;;;;;;4975879;28;20058;-67
2022/04/04 01:46:59;;;;;;;17.58;8.30;;;;;;;;;;4974783;28;20030;-67
2022/04/04 01:49:24;;;;;;;15.20;9.23;;;;;;;;;;4978820;28;20038;-67
2022/04/04 01:51:50;;;;;;;15.23;8.48;;;;;;;;;;4975168;28;20047;-67
2022/04/04 01:54:15;;;;;;;16.42;8.95;;;;;;;;;;4975647;28;20380;-68
2022/04/04 01:56:41;;;;;;;14.82;8.77;;;;;;;;;;4975443;28;20041;-68
2022/04/04 01:59:07;;;;;;;16.85;9.48;;;;;;;;;;4957723;28;20060;-67
2022/04/04 02:01:34;;;;;;;16.88;9.20;;;;;;;;;;4975294;28;20382;-66
2022/04/04 02:04:01;;;;;;;15.65;8.25;;;;;;;;;;4957159;28;20038;-66
2022/04/04 02:06:27;;;;;;;14.60;8.35;;;;;;;;;;4975374;28;20041;-66
2022/04/04 02:08:53;;;;;;;13.10;7.90;;;;;;;;;;4974773;28;20027;-66
2022/04/04 02:11:20;;;;;;;11.65;7.45;;;;;;;;;;4975218;28;20038;-66
2022/04/04 02:13:47;;;;;;;13.77;7.63;;;;;;;;;;4974711;28;20041;-67
2022/04/04 02:16:12;;;;;;;14.48;7.18;;;;;;;;;;4975384;28;20081;-66
2022/04/04 02:18:38;;;;;;;10.32;5.50;;;;;;;;;;4975325;28;20027;-66
2022/04/04 02:21:05;;;;;;;12.48;6.68;;;;;;;;;;4974645;28;20031;-67
2022/04/04 02:23:30;;;;;;;11.25;5.13;;;;;;;;;;4975025;28;20034;-67
2022/04/04 02:25:56;;;;;;;13.38;6.93;;;;;;;;;;4974143;28;20434;-66
2022/04/04 02:28:22;;;;;;;12.32;6.05;;;;;;;;;;4975184;28;20034;-66
2022/04/04 02:30:51;;;;;;;9.57;5.32;;;;;;;;;;4974102;28;20452;-66
2022/04/04 02:33:18;;;;;;;7.70;5.18;;;;;;;;;;4975019;28;20027;-67
2022/04/04 02:35:44;;;;;;;11.00;6.15;;;;;;;;;;4975051;28;20062;-67
2022/04/04 02:38:10;;;;;;;11.52;6.60;;;;;;;;;;4973989;28;20093;-66
2022/04/04 02:40:36;;;;;;;8.73;5.60;;;;;;;;;;4974900;28;20038;-66
2022/04/04 02:43:03;;;;;;;11.05;6.68;;;;;;;;;;4956713;28;20385;-67
2022/04/04 02:45:30;;;;;;;6.60;3.97;;;;;;;;;;4957325;28;20057;-66
2022/04/04 02:47:55;;;;;;;9.07;4.90;;;;;;;;;;4956752;28;20027;-68
2022/04/04 02:50:21;;;;;;;14.00;7.15;;;;;;;;;;4954072;29;20130;-67
2022/04/04 02:52:47;;;;;;;10.88;5.90;;;;;;;;;;4953811;28;20035;-67
2022/04/04 02:57:57;;;;;;;8.20;5.00;;;;;;;;;;4954461;29;20034;-67
2022/04/04 03:00:26;;;;;;;13.32;7.50;;;;;;;;;;4954909;28;20035;-67
2022/04/04 03:02:53;;;;;;;10.10;6.30;;;;;;;;;;4954188;28;20493;-66
2022/04/04 03:05:18;;;;;;;13.98;6.43;;;;;;;;;;4969897;28;20043;-67
2022/04/04 03:07:45;;;;;;;12.15;6.63;;;;;;;;;;4955211;28;20046;-66
2022/04/04 03:10:11;;;;;;;10.70;5.65;;;;;;;;;;4954212;28;20557;-66
2022/04/04 03:12:46;;;;;;;8.63;4.78;;;;;;;;;;4955067;28;20035;-67
2022/04/04 03:15:14;;;;;;;9.32;5.03;;;;;;;;;;4954112;28;20063;-66
2022/04/04 03:17:44;;;;;;;9.60;5.25;;;;;;;;;;4954946;28;20486;-66
2022/04/04 03:20:12;;;;;;;10.37;4.70;;;;;;;;;;4954164;28;20300;-66
2022/04/04 03:22:43;;;;;;;10.90;5.90;;;;;;;;;;4954642;28;20258;-66
2022/04/04 03:25:10;;;;;;;;;;;;;;;;;;4954053;28;20532;-66
2022/04/04 03:27:36;;;;;;;13.10;5.53;;;;;;;;;;4953485;28;19954;-66
2022/04/04 03:30:03;;;;;;;10.52;5.35;;;;;;;;;;4952907;28;20031;-66
2022/04/04 03:32:29;;;;;;;10.25;5.78;;;;;;;;;;4954478;28;20035;-66
2022/04/04 03:34:54;;;;;;;8.40;4.35;;;;;;;;;;4952753;28;20031;-66
2022/04/04 03:37:19;;;;;;;6.75;4.38;;;;;;;;;;4953286;28;20069;-66
2022/04/04 03:39:45;;;;;;;10.57;6.32;;;;;;;;;;4954624;28;20063;-67
2022/04/04 03:42:10;;;;;;;10.27;5.93;;;;;;;;;;4953739;28;20378;-67
2022/04/04 03:44:36;;;;;;;11.10;5.70;;;;;;;;;;4954473;28;20027;-66
2022/04/04 03:47:02;;;;;;;8.65;4.80;;;;;;;;;;4953845;28;20035;-66
2022/04/04 03:49:28;;;;;;;13.80;6.22;;;;;;;;;;4953178;28;20185;-67
2022/04/04 03:51:53;;;;;;;10.15;5.78;;;;;;;;;;4971813;28;20516;-66
2022/04/04 03:54:20;;;;;;;9.50;5.53;;;;;;;;;;4973515;28;20384;-67
2022/04/04 03:56:46;;;;;;;9.05;5.22;;;;;;;;;;4973591;28;20067;-67
2022/04/04 03:59:11;;;;;;;11.30;6.00;;;;;;;;;;4972905;28;20049;-66
2022/04/04 04:01:37;;;;;;;9.68;4.57;;;;;;;;;;4973299;28;20473;-67
2022/04/04 04:04:02;;;;;;;9.07;4.75;;;;;;;;;;4972890;28;20472;-67
2022/04/04 04:06:30;;;;;;;11.20;5.78;;;;;;;;;;4973535;28;20054;-67
2022/04/04 04:08:57;;;;;;;8.98;5.38;;;;;;;;;;4972692;28;20384;-67
2022/04/04 04:11:22;;;;;;;10.50;5.70;;;;;;;;;;4973560;28;20034;-68
2022/04/04 04:13:47;;;;;;;11.65;5.72;;;;;;;;;;4973410;28;20361;-67
2022/04/04 04:16:13;;;;;;;10.18;5.25;;;;;;;;;;4972785;28;20372;-67
2022/04/04 04:18:40;;;;;;;11.18;6.00;;;;;;;;;;4973490;28;20087;-68
2022/04/04 04:21:07;;;;;;;11.85;5.93;;;;;;;;;;4972823;28;20031;-67
2022/04/04 04:23:34;;;;;;;8.57;4.43;;;;;;;;;;4956109;28;20038;-67
2022/04/04 04:26:00;;;;;;;8.32;4.68;;;;;;;;;;4972755;28;20045;-67
2022/04/04 04:28:25;;;;;;;9.55;4.22;;;;;;;;;;4973489;28;20113;-66
2022/04/04 04:30:50;;;;;;;9.38;4.93;;;;;;;;;;4973360;28;20027;-66
2022/04/04 04:33:16;;;;;;;7.22;4.38;;;;;;;;;;4972275;28;20117;-66
2022/04/04 04:35:42;;;;;;;6.55;4.05;;;;;;;;;;4973264;28;20027;-66
2022/04/04 04:38:07;;;;;;;10.68;5.90;;;;;;;;;;4975739;28;20042;-66
2022/04/04 04:40:34;;;;;;;6.68;4.22;;;;;;;;;;4976972;28;20453;-66
2022/04/04 04:43:00;;;;;;;12.85;6.05;;;;;;;;;;4976508;28;20096;-66
2022/04/04 04:45:26;;;;;;;10.52;5.55;;;;;;;;;;4976434;28;20031;-65
2022/04/04 04:47:51;;;;;;;8.50;5.43;;;;;;;;;;4976968;28;20178;-66
2022/04/04 04:50:19;;;;;;;10.48;5.95;;;;;;;;;;4976202;28;20046;-66
2022/04/04 04:52:46;;;;;;;9.00;5.43;;;;;;;;;;4959476;28;20027;-67
2022/04/04 04:55:13;;;;;;;9.20;4.95;;;;;;;;;;4976161;28;20030;-67
2022/04/04 04:57:39;;;;;;;9.70;5.07;;;;;;;;;;4976823;28;20038;-67
2022/04/04 05:00:07;;;;;;;9.18;4.70;;;;;;;;;;4958690;28;20037;-66
2022/04/04 05:02:34;;;;;;;7.32;4.50;;;;;;;;;;4976481;28;20053;-67
2022/04/04 05:04:59;;;;;;;11.60;6.00;;;;;;;;;;4976210;28;20038;-66
2022/04/04 05:07:25;;;;;;;14.50;5.63;;;;;;;;;;4976584;28;20078;-67
2022/04/04 05:09:50;;;;;;;10.55;5.13;;;;;;;;;;4976312;28;20038;-68
2022/04/04 05:12:16;;;;;;;11.68;4.43;;;;;;;;;;4976509;28;20713;-67
2022/04/04 05:14:42;;;;;;;11.13;5.80;;;;;;;;;;4975087;28;20061;-66
2022/04/04 05:17:08;;;;;;;8.25;4.68;;;;;;;;;;4976092;28;20031;-66
2022/04/04 05:19:34;;;;;;;12.45;5.40;;;;;;;;;;4977028;28;20031;-67
2022/04/04 05:22:00;;;;;;;11.30;5.57;;;;;;;;;;4975749;28;20058;-67
2022/04/04 05:24:25;;;;;;;10.52;5.45;;;;;;;;;;4976270;28;20030;-67
2022/04/04 05:26:51;;;;;;;8.15;4.80;;;;;;;;;;4976236;28;20026;-67
2022/04/04 05:29:17;;;;;;;10.65;5.72;;;;;;;;;;4975873;28;20029;-66
2022/04/04 05:31:44;;;;;;;7.20;4.60;;;;;;;;;;4977125;28;20031;-66
2022/04/04 05:34:09;;;;;;;8.18;4.30;;;;;;;;;;4976816;28;20035;-67
2022/04/04 05:36:35;;;;;;;10.20;5.97;;;;;;;;;;4976246;28;20039;-68
2022/04/04 05:39:01;;;;;;;11.73;6.20;;;;;;;;;;4974401;28;20097;-66
2022/04/04 05:41:27;;;;;;;10.07;5.07;;;;;;;;;;4976439;28;20078;-67
2022/04/04 05:43:54;;;;;;;10.55;5.22;;;;;;;;;;4974592;28;20031;-66
2022/04/04 05:46:19;;;;;;;10.35;4.57;;;;;;;;;;4975280;28;20069;-67
2022/04/04 05:48:45;;;;;;;8.48;5.13;;;;;;;;;;4975378;28;20034;-67
2022/04/04 05:51:12;;;;;;;8.38;5.13;;;;;;;;;;4974954;28;20066;-66
2022/04/04 05:53:37;;;;;;;9.80;5.22;;;;;;;;;;4975901;28;20031;-67
2022/04/04 05:56:03;;;;;;;10.32;6.57;;;;;;;;;;4974891;28;20027;-65
2022/04/04 05:58:28;;;;;;;10.00;5.63;;;;;;;;;;4975932;28;20084;-66
2022/04/04 06:00:54;;;;;;;9.25;4.30;;;;;;;;;;4975768;28;20085;-67
2022/04/04 06:03:20;;;;;;;9.85;5.18;;;;;;;;;;4975021;28;20124;-67
2022/04/04 06:05:49;;;;;;;10.63;5.78;;;;;;;;;;4975649;28;20475;-67
2022/04/04 06:08:15;;;;;;;11.60;5.70;;;;;;;;;;4975100;28;20022;-66
2022/04/04 06:10:40;;;;;;;11.20;5.85;;;;;;;;;;4975526;28;20035;-67
2022/04/04 06:13:06;;;;;;;12.25;5.90;;;;;;;;;;4973114;28;20038;-67
2022/04/04 06:15:31;;;;;;;14.68;7.20;;;;;;;;;;4975588;28;20465;-67
2022/04/04 06:17:56;;;;;;;14.10;6.40;;;;;;;;;;4974147;28;20033;-67
2022/04/04 06:20:22;;;;;;;10.88;6.00;;;;;;;;;;4974974;28;20050;-67
2022/04/04 06:22:47;;;;;;;8.73;4.22;;;;;;;;;;4975120;28;20035;-67
2022/04/04 06:25:13;;;;;;;11.57;5.68;;;;;;;;;;4974782;28;20034;-67
2022/04/04 06:27:39;;;;;;;12.27;6.20;;;;;;;;;;4975392;28;20536;-67
2022/04/04 06:30:07;;;;;;;10.30;5.60;;;;;;;;;;4974593;28;20499;-67
2022/04/04 06:32:33;;;;;;;12.27;5.95;;;;;;;;;;4974016;28;20031;-67
2022/04/04 06:34:58;;;;;;;10.13;5.45;;;;;;;;;;4975056;28;20033;-69
2022/04/04 06:37:24;;;;;;;9.38;5.60;;;;;;;;;;4957208;28;20031;-67
2022/04/04 06:39:50;;;;;;;9.65;5.78;;;;;;;;;;4975060;28;20385;-69
2022/04/04 06:42:15;;;;;;;14.02;5.50;;;;;;;;;;4974495;28;20162;-68
2022/04/04 06:44:42;;;;;;;9.25;4.53;;;;;;;;;;4974908;28;20027;-67
2022/04/04 06:47:08;;;;;;;10.82;6.35;;;;;;;;;;4974196;28;20035;-68
2022/04/04 06:49:33;;;;;;;11.23;5.60;;;;;;;;;;4974837;28;20033;-67
2022/04/04 06:51:59;;;;;;;9.40;4.80;;;;;;;;;;4975074;28;20051;-68
2022/04/04 06:54:24;;;;;;;8.25;4.47;;;;;;;;;;4974140;28;20384;-68
2022/04/04 06:56:50;;;;;;;8.90;5.30;;;;;;;;;;4974728;28;20081;-67
2022/04/04 06:59:18;;;;;;;13.45;5.43;;;;;;;;;;4956899;28;20094;-68
2022/04/04 07:01:44;;;;;;;8.00;4.90;;;;;;;;;;4956551;28;20524;-67
2022/04/04 07:04:10;;;;;;;8.90;4.70;;;;;;;;;;4972659;28;20038;-68
2022/04/04 07:06:36;;;;;;;10.68;5.38;;;;;;;;;;4957268;28;20066;-68
2022/04/04 07:09:02;;;;;;;8.88;4.90;;;;;;;;;;4974859;28;20108;-68
2022/04/04 07:11:29;;;;;;;9.88;5.45;;;;;;;;;;4973657;28;20035;-68
2022/04/04 07:13:55;;;;;;;10.07;5.13;;;;;;;;;;4974276;28;20065;-68
2022/04/04 07:16:20;;;;;;;11.52;4.82;;;;;;;;;;4973898;28;20066;-68
2022/04/04 07:18:48;;;;;;;8.88;4.82;;;;;;;;;;4974023;28;20101;-69
2022/04/04 07:21:20;;;;;;;9.35;5.63;;;;;;;;;;5068806;28;20388;-67
2022/04/04 07:23:46;;;;;;;10.23;5.15;;;;;;;;;;5069594;28;20094;-68
2022/04/04 07:26:14;;;;;;;9.55;5.55;;;;;;;;;;5068909;28;20037;-69
2022/04/04 07:28:42;;;;;;;8.38;4.85;;;;;;;;;;5069486;28;20082;-68
2022/04/04 07:31:09;;;;;;;10.55;5.93;;;;;;;;;;5068852;28;20033;-68
2022/04/04 07:33:35;;;;;;;8.90;4.88;;;;;;;;;;5069042;28;20119;-68
2022/04/04 07:36:00;;;;;;;10.90;5.00;;;;;;;;;;5068182;28;20477;-68
2022/04/04 07:38:25;;;;;;;8.63;5.53;;;;;;;;;;5068698;28;20377;-68
2022/04/04 07:40:51;;;;;;;8.15;5.00;;;;;;;;;;5069255;28;20040;-69
2022/04/04 07:43:17;;;;;;;9.63;4.88;;;;;;;;;;5068548;28;20025;-69
2022/04/04 07:45:42;;;;;;;10.48;5.70;;;;;;;;;;5069094;28;20033;-68
2022/04/04 07:48:09;;;;;;;14.82;5.82;;;;;;;;;;5068479;28;20035;-68
2022/04/04 07:50:36;;;;;;;10.00;5.20;;;;;;;;;;5067829;28;20040;-68
2022/04/04 07:53:02;;;;;;;9.93;5.93;;;;;;;;;;5068711;28;20171;-68
2022/04/04 07:55:27;;;;;;;9.73;5.75;;;;;;;;;;5068656;28;20478;-68
2022/04/04 07:57:53;;;;;;;11.05;5.13;;;;;;;;;;5069096;28;20458;-68
2022/04/04 08:00:18;;;;;;;6.50;4.07;;;;;;;;;;5067885;28;20029;-68
2022/04/04 08:02:45;;;;;;;12.55;5.88;;;;;;;;;;5068772;28;20025;-68
2022/04/04 08:05:11;;;;;;;10.15;5.38;;;;;;;;;;5067644;28;20028;-68
2022/04/04 08:07:37;;;;;;;10.70;6.03;;;;;;;;;;5068730;28;20033;-68
2022/04/04 08:10:04;;;;;;;10.00;4.82;;;;;;;;;;5068634;28;20040;-69
2022/04/04 08:12:30;;;;;;;9.65;6.13;;;;;;;;;;5068055;28;20033;-68
2022/04/04 08:14:56;;;;;;;10.63;6.10;;;;;;;;;;5068117;28;20025;-68
2022/04/04 08:17:21;;;;;;;8.68;5.28;;;;;;;;;;5068040;28;20055;-68
2022/04/04 08:19:48;;;;;;;9.07;5.05;;;;;;;;;;5068233;28;20055;-69
2022/04/04 08:22:13;;;;;;;9.95;4.85;;;;;;;;;;5067801;28;20064;-69
2022/04/04 08:24:41;;;;;;;10.65;5.90;;;;;;;;;;5067476;28;20423;-69
2022/04/04 08:27:07;;;;;;;9.25;5.00;;;;;;;;;;5069197;28;20497;-70
2022/04/04 08:29:33;;;;;;;9.50;5.25;;;;;;;;;;5068730;28;20036;-70
2022/04/04 08:31:58;;;;;;;8.63;4.72;;;;;;;;;;5059427;28;20091;-70
2022/04/04 08:34:24;;;;;;;11.55;5.70;;;;;;;;;;5052846;28;20098;-69
2022/04/04 08:36:49;;;;;;;8.93;5.20;;;;;;;;;;5054987;28;20063;-69
2022/04/04 08:39:14;;;;;;;7.10;4.50;;;;;;;;;;5054422;28;20082;-68
2022/04/04 08:41:41;;;;;;;8.82;5.30;;;;;;;;;;5053448;28;20454;-69
2022/04/04 08:44:07;;;;;;;12.38;6.80;;;;;;;;;;5054372;28;20025;-68
2022/04/04 08:46:35;;;;;;;10.93;6.35;;;;;;;;;;5054075;28;20029;-69
2022/04/04 08:49:06;;;;;;;13.30;7.28;;;;;;;;;;5054504;28;20064;-68
2022/04/04 08:51:32;;;;;;;11.38;6.57;;;;;;;;;;5053997;28;20031;-68
2022/04/04 08:53:58;;;;;;;12.82;6.85;;;;;;;;;;5054414;28;20108;-69
2022/04/04 08:56:25;;;;;;;17.13;8.93;;;;;;;;;;5053923;28;20065;-68
2022/04/04 08:58:52;;;;;;;17.70;10.15;;;;;;;;;;5036719;28;20482;-69
2022/04/04 09:01:19;;;;;;;12.88;7.15;;;;;;;;;;5053919;28;20079;-69
2022/04/04 09:03:44;;;;;;;21.85;8.43;;;;;;;;;;5054719;28;20033;-69
2022/04/04 09:06:09;;;;;;;20.38;10.70;;;;;;;;;;5054188;28;20332;-69
2022/04/04 09:08:51;;;;;;;18.58;11.40;;;;;;;;;;5052400;28;20466;-68
2022/04/04 09:11:17;;;;;;;17.23;8.45;;;;;;;;;;5053919;28;20083;-70
2022/04/04 09:13:43;;;;;;;15.43;8.45;;;;;;;;;;5053041;28;20032;-69
2022/04/04 09:16:08;;;;;;;15.82;9.45;;;;;;;;;;5054228;28;20036;-69
2022/04/04 09:18:39;;;;;;;11.57;6.53;;;;;;;;;;5053474;28;20111;-70
2022/04/04 09:21:06;;;;;;;10.93;6.00;;;;;;;;;;5052720;28;20098;-70
2022/04/04 09:23:47;;;;;;;12.02;6.13;;;;;;;;;;5053508;28;20366;-69
2022/04/04 09:26:33;;;;;;;10.45;6.22;;;;;;;;;;5053449;28;20036;-67
2022/04/04 09:29:05;;;;;;;12.70;7.50;;;;;;;;;;5054144;28;20032;-69
2022/04/04 09:31:31;;;;;;;12.73;6.97;;;;;;;;;;5053498;28;20029;-69
2022/04/04 09:34:01;;;;;;;11.88;6.70;;;;;;;;;;5053491;28;20044;-69
2022/04/04 09:36:27;;;;;;;11.00;5.88;;;;;;;;;;5052013;28;20051;-68
2022/04/04 09:39:09;;;;;;;13.05;6.68;;;;;;;;;;5053982;28;20394;-69
2022/04/04 09:41:36;;;;;;;10.10;5.75;;;;;;;;;;5053166;28;20040;-68
2022/04/04 09:44:03;;;;;;;12.40;5.65;;;;;;;;;;5052522;28;20032;-68
2022/04/04 09:46:37;;;;;;;10.15;5.55;;;;;;;;;;5052677;28;20082;-67
2022/04/04 09:49:16;;;;;;;8.45;6.03;;;;;;;;;;5053296;28;20025;-66
2022/04/04 09:51:48;;;;;;;13.55;5.22;;;;;;;;;;5053594;28;20024;-66
2022/04/04 09:54:23;;;;;;;12.55;7.07;;;;;;;;;;5052925;28;20064;-66
2022/04/04 09:56:50;;;;;;;13.27;6.93;;;;;;;;;;5053347;28;20119;-65
2022/04/04 09:59:17;;;;;;;9.05;5.00;;;;;;;;;;5052741;28;20029;-66
2022/04/04 10:01:45;;;;;;;10.98;7.20;;;;;;;;;;5052249;28;20047;-69
2022/04/04 10:04:14;;;;;;;11.27;7.57;;;;;;;;;;5051779;28;20035;-72
2022/04/04 10:06:42;;;;;;;8.68;5.60;;;;;;;;;;5053380;28;20025;-71
2022/04/04 10:09:08;;;;;;;12.25;6.13;;;;;;;;;;5053219;28;20466;-71
2022/04/04 10:11:37;;;;;;;13.93;8.35;;;;;;;;;;5052732;28;20116;-72
2022/04/04 10:14:02;;;;;;;11.45;6.50;;;;;;;;;;5053023;28;20074;-71
2022/04/04 10:16:28;;;;;;;15.02;7.55;;;;;;;;;;5052408;28;20037;-70
2022/04/04 10:18:55;;;;;;;9.93;6.20;;;;;;;;;;5052716;28;20025;-71
2022/04/04 10:21:20;;;;;;;11.20;7.13;;;;;;;;;;5052337;28;20057;-72
2022/04/04 10:23:47;;;;;;;10.73;6.70;;;;;;;;;;5052857;28;20047;-71
2022/04/04 10:26:14;;;;;;;12.02;8.35;;;;;;;;;;5052990;28;20033;-71
2022/04/04 10:28:41;;;;;;;10.90;6.47;;;;;;;;;;5052108;28;20493;-71
2022/04/04 10:31:20;;;;;;;12.52;6.45;;;;;;;;;;5052742;28;20049;-71
2022/04/04 10:33:47;;;;;;;13.65;8.43;;;;;;;;;;5052427;28;20104;-71
2022/04/04 10:36:16;;;;;;;12.57;7.30;;;;;;;;;;5052714;28;20501;-70
2022/04/04 10:38:44;;;;;;;12.77;7.63;;;;;;;;;;5052348;28;20529;-70
2022/04/04 10:41:10;;;;;;;18.90;9.57;;;;;;;;;;5052326;28;20033;-69
2022/04/04 10:43:38;;;;;;;14.10;9.40;;;;;;;;;;5052023;28;20029;-68
2022/04/04 10:46:12;;;;;;;15.55;9.60;;;;;;;;;;5052666;28;20025;-68
2022/04/04 10:48:46;;;;;;;14.55;8.95;;;;;;;;;;5051917;28;20032;-67
2022/04/04 10:51:17;;;;;;;15.93;10.73;;;;;;;;;;5052580;28;20136;-67
2022/04/04 10:53:47;;;;;;;20.60;12.27;;;;;;;;;;5051864;28;20055;-67
2022/04/04 10:56:19;;;;;;;19.45;11.75;;;;;;;;;;5052344;28;20119;-68
2022/04/04 10:58:45;;;;;;;15.73;10.52;;;;;;;;;;5051015;28;20029;-67
2022/04/04 11:01:15;;;;;;;18.08;12.65;;;;;;;;;;5052263;28;20040;-66
2022/04/04 11:03:52;;;;;;;14.40;10.13;;;;;;;;;;5051652;28;20067;-66
2022/04/04 11:09:22;;;;;;;18.70;10.48;;;;;;;;;;5051733;28;20182;-67
2022/04/04 11:12:11;;;;;;;20.45;12.70;;;;;;;;;;5052425;28;20207;-66
2022/04/04 11:14:39;;;;;;;15.98;11.18;;;;;;;;;;5051814;28;20040;-66
2022/04/04 11:20:10;;;;;;;19.02;10.85;;;;;;;;;;5052235;28;20497;-68
2022/04/04 11:22:41;;;;;;;18.40;11.55;;;;;;;;;;5051598;28;20087;-68
2022/04/04 11:25:13;;;;;;;15.90;9.95;;;;;;;;;;5051106;28;20040;-67
2022/04/04 11:27:40;;;;;;;14.38;8.73;;;;;;;;;;5051663;28;20037;-68
2022/04/04 11:30:16;;;;;;;18.52;11.40;;;;;;;;;;5050754;28;20043;-68
2022/04/04 11:32:42;;;;;;;19.92;12.95;;;;;;;;;;5051426;28;20108;-68
2022/04/04 11:35:08;;;;;;;19.52;13.57;;;;;;;;;;5052068;28;20033;-67
2022/04/04 11:37:44;;;;;;;21.45;13.48;;;;;;;;;;5051211;28;20029;-67
2022/04/04 11:40:15;;;;;;;21.50;13.68;;;;;;;;;;5050776;28;20171;-67
2022/04/04 11:42:42;;;;;;;20.60;12.27;;;;;;;;;;5051460;28;20036;-66
2022/04/04 11:45:08;;;;;;;14.95;9.40;;;;;;;;;;5050300;28;20037;-67
2022/04/04 11:47:39;;;;;;;22.90;15.23;;;;;;;;;;5051307;28;20032;-66
2022/04/04 11:50:05;;;;;;;22.23;12.65;;;;;;;;;;5051929;28;20033;-67
2022/04/04 11:52:44;;;;;;;19.27;11.95;;;;;;;;;;5051486;28;20466;-66
2022/04/04 11:55:14;;;;;;;19.80;10.45;;;;;;;;;;5051816;28;20041;-68
2022/04/04 11:57:39;;;;;;;16.42;11.30;;;;;;;;;;5051265;28;20483;-66
2022/04/04 12:00:10;;;;;;;20.10;12.65;;;;;;;;;;5051736;28;20107;-67
2022/04/04 12:02:36;;;;;;;15.30;10.82;;;;;;;;;;5050917;28;20025;-68
2022/04/04 12:05:05;;;;;;;18.80;13.18;;;;;;;;;;5051454;28;20057;-67
2022/04/04 12:07:33;;;;;;;16.98;11.50;;;;;;;;;;5036225;28;20359;-67
2022/04/04 12:10:01;;;;;;;11.05;6.95;;;;;;;;;;5055494;28;20029;-67
2022/04/04 12:12:29;;;;;;;16.95;10.77;;;;;;;;;;5054741;28;20072;-67
2022/04/04 12:14:55;;;;;;;20.48;12.95;;;;;;;;;;5055356;28;20032;-66
2022/04/04 12:17:26;;;;;;;11.32;7.88;;;;;;;;;;5054987;28;20086;-66
2022/04/04 12:19:52;;;;;;;14.88;9.82;;;;;;;;;;5053684;28;20055;-66
2022/04/04 12:25:05;;;;;;;16.88;10.88;;;;;;;;;;5055236;28;20048;-65
2022/04/04 12:27:31;;;;;;;25.52;9.25;;;;;;;;;;5054473;28;20029;-65
2022/04/04 12:30:02;;;;;;;21.45;13.35;;;;;;;;;;5055164;28;20039;-65
2022/04/04 12:32:39;;;;;;;18.88;12.25;;;;;;;;;;5054415;28;20029;-65
2022/04/04 12:35:06;;;;;;;19.40;11.13;;;;;;;;;;5055129;28;20039;-65
2022/04/04 12:37:43;;;;;;;19.48;12.25;;;;;;;;;;5054339;28;20128;-65
2022/04/04 12:40:15;;;;;;;16.00;9.98;;;;;;;;;;5054772;28;20371;-65
2022/04/04 12:42:41;;;;;;;22.02;14.68;;;;;;;;;;5054174;28;20041;-65
2022/04/04 12:45:07;;;;;;;17.85;11.57;;;;;;;;;;5054006;28;20130;-65
2022/04/04 12:47:32;;;;;;;21.20;13.20;;;;;;;;;;5053799;28;20104;-66
2022/04/04 12:50:14;;;;;;;22.58;15.70;;;;;;;;;;5054447;28;20035;-66
2022/04/04 12:52:59;;;;;;;20.20;14.13;;;;;;;;;;5054006;28;20033;-65
2022/04/04 12:55:26;;;;;;;19.27;12.13;;;;;;;;;;5054011;28;20025;-67
2022/04/04 12:57:52;;;;;;;20.77;13.93;;;;;;;;;;5054988;28;20029;-66
2022/04/04 13:00:35;;;;;;;19.17;12.73;;;;;;;;;;5054869;28;20025;-66
2022/04/04 13:03:20;;;;;;;25.98;16.17;;;;;;;;;;5058726;28;20025;-66
2022/04/04 13:05:47;;;;;;;24.27;11.63;;;;;;;;;;5056555;28;20025;-67
2022/04/04 13:08:27;;;;;;;23.45;12.60;;;;;;;;;;5055684;28;20083;-66
2022/04/04 13:11:12;;;;;;;22.13;15.93;;;;;;;;;;5053053;28;20029;-66
2022/04/04 13:14:00;;;;;;;28.25;16.77;;;;;;;;;;5053295;28;20025;-67
2022/04/04 13:16:37;;;;;;;19.60;11.65;;;;;;;;;;5054148;28;20029;-66
2022/04/04 13:19:14;;;;;;;23.48;12.50;;;;;;;;;;5053996;28;20489;-65
2022/04/04 13:21:43;;;;;;;24.25;15.93;;;;;;;;;;5053118;28;20060;-66
2022/04/04 13:24:09;;;;;;;21.00;13.80;;;;;;;;;;5053949;28;20116;-65
2022/04/04 13:26:36;;;;;;;20.65;13.50;;;;;;;;;;5052960;28;20025;-66
2022/04/04 13:29:03;;;;;;;27.08;15.57;;;;;;;;;;5054273;28;20037;-64
2022/04/04 13:31:28;;;;;;;22.85;16.00;;;;;;;;;;5052090;28;20560;-66
2022/04/04 13:33:56;;;;;;;25.77;17.10;;;;;;;;;;5053819;28;20108;-64
2022/04/04 13:36:25;;;;;;;23.65;14.00;;;;;;;;;;5053543;28;20104;-64
2022/04/04 13:38:53;;;;;;;23.50;14.68;;;;;;;;;;5053027;28;20386;-64
2022/04/04 13:41:22;;;;;;;16.58;12.40;;;;;;;;;;5053582;28;20091;-64
2022/04/04 13:43:48;;;;;;;19.23;11.88;;;;;;;;;;5052927;28;20334;-65
2022/04/04 13:46:17;;;;;;;19.52;11.52;;;;;;;;;;5053244;28;20442;-64
2022/04/04 13:48:43;;;;;;;20.83;12.75;;;;;;;;;;5052271;28;20039;-64
2022/04/04 13:51:09;;;;;;;22.98;12.40;;;;;;;;;;5052990;28;20393;-64
2022/04/04 13:53:35;;;;;;;17.73;12.10;;;;;;;;;;5052174;28;20534;-64
2022/04/04 13:56:01;;;;;;;17.70;11.50;;;;;;;;;;5052830;28;20120;-63
2022/04/04 13:58:27;;;;;;;19.80;13.13;;;;;;;;;;5052833;28;20021;-63
2022/04/04 14:00:52;;;;;;;21.55;13.93;;;;;;;;;;5051919;28;20029;-64
2022/04/04 14:03:18;;;;;;;23.48;16.13;;;;;;;;;;5052893;28;20033;-63
2022/04/04 14:05:43;;;;;;;23.45;14.50;;;;;;;;;;5051216;28;20043;-64
2022/04/04 14:08:12;;;;;;;19.50;11.57;;;;;;;;;;5051526;28;20036;-64
2022/04/04 14:10:40;;;;;;;20.88;13.35;;;;;;;;;;5051899;28;20104;-66
2022/04/04 14:13:05;;;;;;;24.05;13.40;;;;;;;;;;5053335;28;20033;-64
2022/04/04 14:15:31;;;;;;;19.10;11.98;;;;;;;;;;5052298;28;20459;-67
2022/04/04 14:17:56;;;;;;;15.43;10.27;;;;;;;;;;5050339;28;20037;-65
2022/04/04 14:20:22;;;;;;;19.45;13.73;;;;;;;;;;5052363;28;20139;-65
2022/04/04 14:22:49;;;;;;;18.92;12.60;;;;;;;;;;5050585;28;20040;-66
2022/04/04 14:25:14;;;;;;;20.50;13.80;;;;;;;;;;5052566;28;20071;-66
2022/04/04 14:27:40;;;;;;;18.85;11.98;;;;;;;;;;5052087;28;20052;-66
2022/04/04 14:30:07;;;;;;;19.00;12.93;;;;;;;;;;5052328;28;20029;-65
2022/04/04 14:32:33;;;;;;;20.20;13.07;;;;;;;;;;5051678;28;20074;-67
2022/04/04 14:34:58;;;;;;;26.95;16.42;;;;;;;;;;5052614;28;20033;-65
2022/04/04 14:37:24;;;;;;;24.45;16.25;;;;;;;;;;5052351;28;20037;-65
2022/04/04 14:39:49;;;;;;;21.35;14.18;;;;;;;;;;5052046;28;20021;-66
2022/04/04 14:42:16;;;;;;;22.00;13.38;;;;;;;;;;5052346;28;20036;-66
2022/04/04 14:44:48;;;;;;;25.13;17.45;;;;;;;;;;5052189;28;20073;-66